sensor_id;sensor_type;location;lat;lon;timestamp;P1;durP1;ratioP1;P2;durP2;ratioP2
81934;SDS011;71405;47.674;-2.050;2023-07-13T00:02:14;5.50;;;2.05;;
81934;SDS011;71405;47.674;-2.050;2023-07-13T00:04:41;4.68;;;1.90;;
81934;SDS011;71405;47.674;-2.050;2023-07-13T00:07:07;5.35;;;1.92;;
81934;SDS011;71405;47.674;-2.050;2023-07-13T00:09:33;6.07;;;1.80;;
81934;SDS011;71405;47.674;-2.050;2023-07-13T00:11:59;44.92;;;36.95;;
81934;SDS011;71405;47.674;-2.050;2023-07-13T00:14:26;33.35;;;27.10;;
81934;SDS011;71405;47.674;-2.050;2023-07-13T00:16:53;24.23;;;18.83;;
81934;SDS011;71405;47.674;-2.050;2023-07-13T00:19:19;19.77;;;15.20;;
81934;SDS011;71405;47.674;-2.050;2023-07-13T00:21:45;17.10;;;11.02;;
81934;SDS011;71405;47.674;-2.050;2023-07-13T00:24:14;12.98;;;7.65;;
81934;SDS011;71405;47.674;-2.050;2023-07-13T00:26:41;13.10;;;8.60;;
81934;SDS011;71405;47.674;-2.050;2023-07-13T00:29:11;14.60;;;9.23;;
81934;SDS011;71405;47.674;-2.050;2023-07-13T00:31:37;12.43;;;7.90;;
81934;SDS011;71405;47.674;-2.050;2023-07-13T00:34:03;15.68;;;9.88;;
81934;SDS011;71405;47.674;-2.050;2023-07-13T00:36:29;13.60;;;8.63;;
81934;SDS011;71405;47.674;-2.050;2023-07-13T00:38:56;14.02;;;8.63;;
81934;SDS011;71405;47.674;-2.050;2023-07-13T00:41:22;12.77;;;8.50;;
81934;SDS011;71405;47.674;-2.050;2023-07-13T00:43:48;14.07;;;8.80;;
81934;SDS011;71405;47.674;-2.050;2023-07-13T00:46:15;12.48;;;8.23;;
81934;SDS011;71405;47.674;-2.050;2023-07-13T00:48:44;12.38;;;7.95;;
81934;SDS011;71405;47.674;-2.050;2023-07-13T00:51:12;12.90;;;8.40;;
81934;SDS011;71405;47.674;-2.050;2023-07-13T00:53:41;12.13;;;7.95;;
81934;SDS011;71405;47.674;-2.050;2023-07-13T00:56:07;14.65;;;8.00;;
81934;SDS011;71405;47.674;-2.050;2023-07-13T00:58:34;12.77;;;7.45;;
81934;SDS011;71405;47.674;-2.050;2023-07-13T01:01:00;12.93;;;7.68;;
81934;SDS011;71405;47.674;-2.050;2023-07-13T01:03:26;12.30;;;7.65;;
81934;SDS011;71405;47.674;-2.050;2023-07-13T01:05:52;12.30;;;7.18;;
81934;SDS011;71405;47.674;-2.050;2023-07-13T01:08:19;13.77;;;6.40;;
81934;SDS011;71405;47.674;-2.050;2023-07-13T01:10:52;12.02;;;6.43;;
81934;SDS011;71405;47.674;-2.050;2023-07-13T01:13:20;9.95;;;6.00;;
81934;SDS011;71405;47.674;-2.050;2023-07-13T01:15:46;11.05;;;5.93;;
81934;SDS011;71405;47.674;-2.050;2023-07-13T01:18:15;9.65;;;5.97;;
81934;SDS011;71405;47.674;-2.050;2023-07-13T01:21:16;11.18;;;6.00;;
81934;SDS011;71405;47.674;-2.050;2023-07-13T01:23:35;11.35;;;5.68;;
81934;SDS011;71405;47.674;-2.050;2023-07-13T01:26:01;10.88;;;5.45;;
81934;SDS011;71405;47.674;-2.050;2023-07-13T01:28:27;9.88;;;4.90;;
81934;SDS011;71405;47.674;-2.050;2023-07-13T01:30:54;10.48;;;5.97;;
81934;SDS011;71405;47.674;-2.050;2023-07-13T01:33:21;10.73;;;5.45;;
81934;SDS011;71405;47.674;-2.050;2023-07-13T01:35:46;10.38;;;4.63;;
81934;SDS011;71405;47.674;-2.050;2023-07-13T01:38:18;9.95;;;5.20;;
81934;SDS011;71405;47.674;-2.050;2023-07-13T01:40:46;10.48;;;5.15;;
81934;SDS011;71405;47.674;-2.050;2023-07-13T01:43:12;8.23;;;4.13;;
81934;SDS011;71405;47.674;-2.050;2023-07-13T01:45:38;9.35;;;4.88;;
81934;SDS011;71405;47.674;-2.050;2023-07-13T01:48:04;8.77;;;4.20;;
81934;SDS011;71405;47.674;-2.050;2023-07-13T01:50:32;10.23;;;4.78;;
81934;SDS011;71405;47.674;-2.050;2023-07-13T01:52:58;10.75;;;4.47;;
81934;SDS011;71405;47.674;-2.050;2023-07-13T01:55:23;9.18;;;4.57;;
81934;SDS011;71405;47.674;-2.050;2023-07-13T01:57:49;8.45;;;4.15;;
81934;SDS011;71405;47.674;-2.050;2023-07-13T02:00:15;7.90;;;4.28;;
81934;SDS011;71405;47.674;-2.050;2023-07-13T02:02:41;9.35;;;4.50;;
81934;SDS011;71405;47.674;-2.050;2023-07-13T02:05:07;9.23;;;4.45;;
81934;SDS011;71405;47.674;-2.050;2023-07-13T02:07:33;9.98;;;4.35;;
81934;SDS011;71405;47.674;-2.050;2023-07-13T02:09:58;7.85;;;3.70;;
81934;SDS011;71405;47.674;-2.050;2023-07-13T02:12:24;9.05;;;4.00;;
81934;SDS011;71405;47.674;-2.050;2023-07-13T02:14:50;7.70;;;3.55;;
81934;SDS011;71405;47.674;-2.050;2023-07-13T02:17:15;8.70;;;4.20;;
81934;SDS011;71405;47.674;-2.050;2023-07-13T02:19:41;8.48;;;4.18;;
81934;SDS011;71405;47.674;-2.050;2023-07-13T02:22:07;11.00;;;3.83;;
81934;SDS011;71405;47.674;-2.050;2023-07-13T02:24:32;9.68;;;4.22;;
81934;SDS011;71405;47.674;-2.050;2023-07-13T02:26:58;7.97;;;3.58;;
81934;SDS011;71405;47.674;-2.050;2023-07-13T02:29:24;7.90;;;3.80;;
81934;SDS011;71405;47.674;-2.050;2023-07-13T02:31:50;7.15;;;3.13;;
81934;SDS011;71405;47.674;-2.050;2023-07-13T02:34:15;9.02;;;3.70;;
81934;SDS011;71405;47.674;-2.050;2023-07-13T02:36:41;7.82;;;3.35;;
81934;SDS011;71405;47.674;-2.050;2023-07-13T02:39:07;7.45;;;3.17;;
81934;SDS011;71405;47.674;-2.050;2023-07-13T02:41:33;7.60;;;3.30;;
81934;SDS011;71405;47.674;-2.050;2023-07-13T02:43:59;10.30;;;3.47;;
81934;SDS011;71405;47.674;-2.050;2023-07-13T02:46:32;7.85;;;3.60;;
81934;SDS011;71405;47.674;-2.050;2023-07-13T02:48:59;6.82;;;3.05;;
81934;SDS011;71405;47.674;-2.050;2023-07-13T02:51:25;8.43;;;3.30;;
81934;SDS011;71405;47.674;-2.050;2023-07-13T02:53:51;6.13;;;2.78;;
81934;SDS011;71405;47.674;-2.050;2023-07-13T02:56:18;8.10;;;3.25;;
81934;SDS011;71405;47.674;-2.050;2023-07-13T02:58:47;9.13;;;3.28;;
81934;SDS011;71405;47.674;-2.050;2023-07-13T03:01:13;8.05;;;2.97;;
81934;SDS011;71405;47.674;-2.050;2023-07-13T03:03:43;5.80;;;2.90;;
81934;SDS011;71405;47.674;-2.050;2023-07-13T03:06:11;8.13;;;3.42;;
81934;SDS011;71405;47.674;-2.050;2023-07-13T03:08:38;6.45;;;3.00;;
81934;SDS011;71405;47.674;-2.050;2023-07-13T03:11:08;6.20;;;2.92;;
81934;SDS011;71405;47.674;-2.050;2023-07-13T03:13:36;7.40;;;2.97;;
81934;SDS011;71405;47.674;-2.050;2023-07-13T03:16:02;6.85;;;2.67;;
81934;SDS011;71405;47.674;-2.050;2023-07-13T03:18:28;7.53;;;2.90;;
81934;SDS011;71405;47.674;-2.050;2023-07-13T03:20:54;7.60;;;2.75;;
81934;SDS011;71405;47.674;-2.050;2023-07-13T03:23:20;6.60;;;3.05;;
81934;SDS011;71405;47.674;-2.050;2023-07-13T03:25:47;6.78;;;2.63;;
81934;SDS011;71405;47.674;-2.050;2023-07-13T03:28:13;6.85;;;2.63;;
81934;SDS011;71405;47.674;-2.050;2023-07-13T03:30:40;6.95;;;3.10;;
81934;SDS011;71405;47.674;-2.050;2023-07-13T03:33:06;7.03;;;2.60;;
81934;SDS011;71405;47.674;-2.050;2023-07-13T03:35:31;5.88;;;2.50;;
81934;SDS011;71405;47.674;-2.050;2023-07-13T03:37:58;7.82;;;2.80;;
81934;SDS011;71405;47.674;-2.050;2023-07-13T03:40:24;8.02;;;3.25;;
81934;SDS011;71405;47.674;-2.050;2023-07-13T03:42:51;7.40;;;2.60;;
81934;SDS011;71405;47.674;-2.050;2023-07-13T03:45:17;6.45;;;2.65;;
81934;SDS011;71405;47.674;-2.050;2023-07-13T03:47:43;6.03;;;2.72;;
81934;SDS011;71405;47.674;-2.050;2023-07-13T03:50:09;9.00;;;2.78;;
81934;SDS011;71405;47.674;-2.050;2023-07-13T03:52:35;5.28;;;2.75;;
81934;SDS011;71405;47.674;-2.050;2023-07-13T03:55:00;7.40;;;2.85;;
81934;SDS011;71405;47.674;-2.050;2023-07-13T03:57:26;6.68;;;2.55;;
81934;SDS011;71405;47.674;-2.050;2023-07-13T03:59:52;5.68;;;2.47;;
81934;SDS011;71405;47.674;-2.050;2023-07-13T04:02:18;5.20;;;2.40;;
81934;SDS011;71405;47.674;-2.050;2023-07-13T04:04:43;6.68;;;2.58;;
81934;SDS011;71405;47.674;-2.050;2023-07-13T04:07:09;7.30;;;2.65;;
81934;SDS011;71405;47.674;-2.050;2023-07-13T04:09:35;7.10;;;2.60;;
81934;SDS011;71405;47.674;-2.050;2023-07-13T04:12:01;6.30;;;2.50;;
81934;SDS011;71405;47.674;-2.050;2023-07-13T04:14:27;6.10;;;2.50;;
81934;SDS011;71405;47.674;-2.050;2023-07-13T04:16:53;5.82;;;2.17;;
81934;SDS011;71405;47.674;-2.050;2023-07-13T04:19:19;5.97;;;2.58;;
81934;SDS011;71405;47.674;-2.050;2023-07-13T04:21:45;6.85;;;2.40;;
81934;SDS011;71405;47.674;-2.050;2023-07-13T04:24:11;8.57;;;2.55;;
81934;SDS011;71405;47.674;-2.050;2023-07-13T04:26:37;6.78;;;2.70;;
81934;SDS011;71405;47.674;-2.050;2023-07-13T04:29:03;5.50;;;2.40;;
81934;SDS011;71405;47.674;-2.050;2023-07-13T04:31:29;5.13;;;2.40;;
81934;SDS011;71405;47.674;-2.050;2023-07-13T04:33:55;6.20;;;2.75;;
81934;SDS011;71405;47.674;-2.050;2023-07-13T04:36:21;5.35;;;2.47;;
81934;SDS011;71405;47.674;-2.050;2023-07-13T04:38:47;6.18;;;2.40;;
81934;SDS011;71405;47.674;-2.050;2023-07-13T04:41:14;6.32;;;2.97;;
81934;SDS011;71405;47.674;-2.050;2023-07-13T04:43:40;5.18;;;2.35;;
81934;SDS011;71405;47.674;-2.050;2023-07-13T04:46:12;5.72;;;2.22;;
81934;SDS011;71405;47.674;-2.050;2023-07-13T04:48:40;6.90;;;2.45;;
81934;SDS011;71405;47.674;-2.050;2023-07-13T04:51:06;5.82;;;2.60;;
81934;SDS011;71405;47.674;-2.050;2023-07-13T04:53:31;4.53;;;1.95;;
81934;SDS011;71405;47.674;-2.050;2023-07-13T04:55:59;5.97;;;2.40;;
81934;SDS011;71405;47.674;-2.050;2023-07-13T04:58:25;6.97;;;2.35;;
81934;SDS011;71405;47.674;-2.050;2023-07-13T05:00:52;6.35;;;2.40;;
81934;SDS011;71405;47.674;-2.050;2023-07-13T05:03:18;5.55;;;2.13;;
81934;SDS011;71405;47.674;-2.050;2023-07-13T05:05:53;5.50;;;2.15;;
81934;SDS011;71405;47.674;-2.050;2023-07-13T05:08:21;5.78;;;2.22;;
81934;SDS011;71405;47.674;-2.050;2023-07-13T05:10:46;3.97;;;2.00;;
81934;SDS011;71405;47.674;-2.050;2023-07-13T05:13:12;6.28;;;2.10;;
81934;SDS011;71405;47.674;-2.050;2023-07-13T05:15:37;6.28;;;2.17;;
81934;SDS011;71405;47.674;-2.050;2023-07-13T05:18:03;5.25;;;2.22;;
81934;SDS011;71405;47.674;-2.050;2023-07-13T05:20:29;5.57;;;2.45;;
81934;SDS011;71405;47.674;-2.050;2023-07-13T05:22:54;6.40;;;2.20;;
81934;SDS011;71405;47.674;-2.050;2023-07-13T05:25:20;5.38;;;2.15;;
81934;SDS011;71405;47.674;-2.050;2023-07-13T05:27:46;7.38;;;2.60;;
81934;SDS011;71405;47.674;-2.050;2023-07-13T05:30:12;4.85;;;2.08;;
81934;SDS011;71405;47.674;-2.050;2023-07-13T05:32:38;5.38;;;2.17;;
81934;SDS011;71405;47.674;-2.050;2023-07-13T05:35:04;6.28;;;2.10;;
81934;SDS011;71405;47.674;-2.050;2023-07-13T05:37:31;5.82;;;2.28;;
81934;SDS011;71405;47.674;-2.050;2023-07-13T05:39:56;7.18;;;2.22;;
81934;SDS011;71405;47.674;-2.050;2023-07-13T05:42:22;6.32;;;2.35;;
81934;SDS011;71405;47.674;-2.050;2023-07-13T05:44:48;5.22;;;2.03;;
81934;SDS011;71405;47.674;-2.050;2023-07-13T05:47:13;5.70;;;2.25;;
81934;SDS011;71405;47.674;-2.050;2023-07-13T05:49:40;5.50;;;2.33;;
81934;SDS011;71405;47.674;-2.050;2023-07-13T05:52:06;5.85;;;2.22;;
81934;SDS011;71405;47.674;-2.050;2023-07-13T05:54:32;5.95;;;2.10;;
81934;SDS011;71405;47.674;-2.050;2023-07-13T05:56:57;5.60;;;2.22;;
81934;SDS011;71405;47.674;-2.050;2023-07-13T05:59:23;4.57;;;2.00;;
81934;SDS011;71405;47.674;-2.050;2023-07-13T06:01:49;5.20;;;2.10;;
81934;SDS011;71405;47.674;-2.050;2023-07-13T06:04:17;5.00;;;2.20;;
81934;SDS011;71405;47.674;-2.050;2023-07-13T06:06:43;5.43;;;1.98;;
81934;SDS011;71405;47.674;-2.050;2023-07-13T06:09:08;5.32;;;2.15;;
81934;SDS011;71405;47.674;-2.050;2023-07-13T06:11:34;4.30;;;1.98;;
81934;SDS011;71405;47.674;-2.050;2023-07-13T06:14:00;5.18;;;2.05;;
81934;SDS011;71405;47.674;-2.050;2023-07-13T06:16:25;4.75;;;1.80;;
81934;SDS011;71405;47.674;-2.050;2023-07-13T06:18:51;5.15;;;2.30;;
81934;SDS011;71405;47.674;-2.050;2023-07-13T06:21:18;5.32;;;2.40;;
81934;SDS011;71405;47.674;-2.050;2023-07-13T06:23:46;4.93;;;2.05;;
81934;SDS011;71405;47.674;-2.050;2023-07-13T06:26:15;5.38;;;2.10;;
81934;SDS011;71405;47.674;-2.050;2023-07-13T06:28:42;5.63;;;2.10;;
81934;SDS011;71405;47.674;-2.050;2023-07-13T06:31:09;4.57;;;1.98;;
81934;SDS011;71405;47.674;-2.050;2023-07-13T06:33:36;5.90;;;2.53;;
81934;SDS011;71405;47.674;-2.050;2023-07-13T06:36:02;42.65;;;34.83;;
81934;SDS011;71405;47.674;-2.050;2023-07-13T06:38:29;34.05;;;27.30;;
81934;SDS011;71405;47.674;-2.050;2023-07-13T06:40:55;33.35;;;26.80;;
81934;SDS011;71405;47.674;-2.050;2023-07-13T06:43:21;26.67;;;19.40;;
81934;SDS011;71405;47.674;-2.050;2023-07-13T06:45:47;24.85;;;17.05;;
81934;SDS011;71405;47.674;-2.050;2023-07-13T06:48:15;28.70;;;16.30;;
81934;SDS011;71405;47.674;-2.050;2023-07-13T06:50:41;22.95;;;17.75;;
81934;SDS011;71405;47.674;-2.050;2023-07-13T06:53:08;21.92;;;16.50;;
81934;SDS011;71405;47.674;-2.050;2023-07-13T06:55:34;24.80;;;17.67;;
81934;SDS011;71405;47.674;-2.050;2023-07-13T06:58:00;23.85;;;16.08;;
81934;SDS011;71405;47.674;-2.050;2023-07-13T07:00:25;23.15;;;15.85;;
81934;SDS011;71405;47.674;-2.050;2023-07-13T07:02:51;23.48;;;15.30;;
81934;SDS011;71405;47.674;-2.050;2023-07-13T07:05:17;23.60;;;15.98;;
81934;SDS011;71405;47.674;-2.050;2023-07-13T07:07:43;24.77;;;16.08;;
81934;SDS011;71405;47.674;-2.050;2023-07-13T07:10:08;21.38;;;14.15;;
81934;SDS011;71405;47.674;-2.050;2023-07-13T07:12:34;23.90;;;15.50;;
81934;SDS011;71405;47.674;-2.050;2023-07-13T07:14:59;19.17;;;13.20;;
81934;SDS011;71405;47.674;-2.050;2023-07-13T07:17:25;19.63;;;13.10;;
81934;SDS011;71405;47.674;-2.050;2023-07-13T07:19:51;19.50;;;12.32;;
81934;SDS011;71405;47.674;-2.050;2023-07-13T07:22:19;19.55;;;12.82;;
81934;SDS011;71405;47.674;-2.050;2023-07-13T07:24:45;18.83;;;12.75;;
81934;SDS011;71405;47.674;-2.050;2023-07-13T07:27:11;19.52;;;11.82;;
81934;SDS011;71405;47.674;-2.050;2023-07-13T07:29:37;21.08;;;11.55;;
81934;SDS011;71405;47.674;-2.050;2023-07-13T07:32:03;17.95;;;11.10;;
81934;SDS011;71405;47.674;-2.050;2023-07-13T07:34:29;19.75;;;11.70;;
81934;SDS011;71405;47.674;-2.050;2023-07-13T07:36:59;15.82;;;11.20;;
81934;SDS011;71405;47.674;-2.050;2023-07-13T07:39:28;16.33;;;10.43;;
81934;SDS011;71405;47.674;-2.050;2023-07-13T07:41:54;16.15;;;10.63;;
81934;SDS011;71405;47.674;-2.050;2023-07-13T07:44:20;58.35;;;49.42;;
81934;SDS011;71405;47.674;-2.050;2023-07-13T07:46:45;47.78;;;38.55;;
81934;SDS011;71405;47.674;-2.050;2023-07-13T07:49:11;31.38;;;25.00;;
81934;SDS011;71405;47.674;-2.050;2023-07-13T07:51:37;39.53;;;30.48;;
81934;SDS011;71405;47.674;-2.050;2023-07-13T07:54:03;39.45;;;30.60;;
81934;SDS011;71405;47.674;-2.050;2023-07-13T07:56:30;38.42;;;29.10;;
81934;SDS011;71405;47.674;-2.050;2023-07-13T07:58:56;31.30;;;25.52;;
81934;SDS011;71405;47.674;-2.050;2023-07-13T08:01:22;28.23;;;19.30;;
81934;SDS011;71405;47.674;-2.050;2023-07-13T08:03:47;20.77;;;13.07;;
81934;SDS011;71405;47.674;-2.050;2023-07-13T08:06:13;17.15;;;9.30;;
81934;SDS011;71405;47.674;-2.050;2023-07-13T08:08:39;13.98;;;8.52;;
81934;SDS011;71405;47.674;-2.050;2023-07-13T08:11:06;16.00;;;7.15;;
81934;SDS011;71405;47.674;-2.050;2023-07-13T08:13:33;11.98;;;5.97;;
81934;SDS011;71405;47.674;-2.050;2023-07-13T08:15:59;12.45;;;5.05;;
81934;SDS011;71405;47.674;-2.050;2023-07-13T08:18:25;9.57;;;4.47;;
81934;SDS011;71405;47.674;-2.050;2023-07-13T08:20:53;11.05;;;4.43;;
81934;SDS011;71405;47.674;-2.050;2023-07-13T08:23:21;12.23;;;4.60;;
81934;SDS011;71405;47.674;-2.050;2023-07-13T08:25:53;24.48;;;20.02;;
81934;SDS011;71405;47.674;-2.050;2023-07-13T08:28:22;16.05;;;9.35;;
81934;SDS011;71405;47.674;-2.050;2023-07-13T08:30:49;18.67;;;9.57;;
81934;SDS011;71405;47.674;-2.050;2023-07-13T08:33:15;20.48;;;11.15;;
81934;SDS011;71405;47.674;-2.050;2023-07-13T08:35:41;16.23;;;9.88;;
81934;SDS011;71405;47.674;-2.050;2023-07-13T08:38:07;14.77;;;9.55;;
81934;SDS011;71405;47.674;-2.050;2023-07-13T08:40:33;22.52;;;11.65;;
81934;SDS011;71405;47.674;-2.050;2023-07-13T08:42:59;16.92;;;9.07;;
81934;SDS011;71405;47.674;-2.050;2023-07-13T08:45:28;17.02;;;9.77;;
81934;SDS011;71405;47.674;-2.050;2023-07-13T08:50:31;14.40;;;6.38;;
81934;SDS011;71405;47.674;-2.050;2023-07-13T08:53:01;13.30;;;6.67;;
81934;SDS011;71405;47.674;-2.050;2023-07-13T08:55:33;11.65;;;5.25;;
81934;SDS011;71405;47.674;-2.050;2023-07-13T08:58:12;10.25;;;4.78;;
81934;SDS011;71405;47.674;-2.050;2023-07-13T09:03:12;9.80;;;4.43;;
81934;SDS011;71405;47.674;-2.050;2023-07-13T09:05:45;11.63;;;4.72;;
81934;SDS011;71405;47.674;-2.050;2023-07-13T09:14:26;9.00;;;3.90;;
81934;SDS011;71405;47.674;-2.050;2023-07-13T09:17:10;10.80;;;3.92;;
81934;SDS011;71405;47.674;-2.050;2023-07-13T09:20:06;10.52;;;3.80;;
81934;SDS011;71405;47.674;-2.050;2023-07-13T09:22:44;9.13;;;3.05;;
81934;SDS011;71405;47.674;-2.050;2023-07-13T09:25:29;8.40;;;3.08;;
81934;SDS011;71405;47.674;-2.050;2023-07-13T09:28:19;8.27;;;2.92;;
81934;SDS011;71405;47.674;-2.050;2023-07-13T09:31:01;8.93;;;3.00;;
81934;SDS011;71405;47.674;-2.050;2023-07-13T09:33:31;8.10;;;2.92;;
81934;SDS011;71405;47.674;-2.050;2023-07-13T09:35:57;9.25;;;2.72;;
81934;SDS011;71405;47.674;-2.050;2023-07-13T09:38:24;5.30;;;2.28;;
81934;SDS011;71405;47.674;-2.050;2023-07-13T09:43:20;8.10;;;2.60;;
81934;SDS011;71405;47.674;-2.050;2023-07-13T09:45:47;7.20;;;2.60;;
81934;SDS011;71405;47.674;-2.050;2023-07-13T09:48:13;7.13;;;2.70;;
81934;SDS011;71405;47.674;-2.050;2023-07-13T09:50:40;5.03;;;2.35;;
81934;SDS011;71405;47.674;-2.050;2023-07-13T09:53:14;7.57;;;2.70;;
81934;SDS011;71405;47.674;-2.050;2023-07-13T09:55:42;7.00;;;2.38;;
81934;SDS011;71405;47.674;-2.050;2023-07-13T09:59:43;8.52;;;2.65;;
81934;SDS011;71405;47.674;-2.050;2023-07-13T10:04:57;6.53;;;2.15;;
81934;SDS011;71405;47.674;-2.050;2023-07-13T10:07:25;5.93;;;2.05;;
81934;SDS011;71405;47.674;-2.050;2023-07-13T10:09:54;5.25;;;2.10;;
81934;SDS011;71405;47.674;-2.050;2023-07-13T10:12:21;8.88;;;2.75;;
81934;SDS011;71405;47.674;-2.050;2023-07-13T10:14:51;7.70;;;2.30;;
81934;SDS011;71405;47.674;-2.050;2023-07-13T10:17:21;5.82;;;2.05;;
81934;SDS011;71405;47.674;-2.050;2023-07-13T10:19:59;6.05;;;2.15;;
81934;SDS011;71405;47.674;-2.050;2023-07-13T10:22:31;5.47;;;2.20;;
81934;SDS011;71405;47.674;-2.050;2023-07-13T10:25:24;5.03;;;2.13;;
81934;SDS011;71405;47.674;-2.050;2023-07-13T10:27:54;4.75;;;2.05;;
81934;SDS011;71405;47.674;-2.050;2023-07-13T10:30:28;5.63;;;2.10;;
81934;SDS011;71405;47.674;-2.050;2023-07-13T10:33:00;7.93;;;2.00;;
81934;SDS011;71405;47.674;-2.050;2023-07-13T10:35:28;6.63;;;2.33;;
81934;SDS011;71405;47.674;-2.050;2023-07-13T10:37:57;5.35;;;1.92;;
81934;SDS011;71405;47.674;-2.050;2023-07-13T10:40:39;5.85;;;1.88;;
81934;SDS011;71405;47.674;-2.050;2023-07-13T10:43:17;6.28;;;2.08;;
81934;SDS011;71405;47.674;-2.050;2023-07-13T10:45:47;5.57;;;2.00;;
81934;SDS011;71405;47.674;-2.050;2023-07-13T10:48:16;7.40;;;2.15;;
81934;SDS011;71405;47.674;-2.050;2023-07-13T10:50:44;4.85;;;1.60;;
81934;SDS011;71405;47.674;-2.050;2023-07-13T10:53:27;5.38;;;2.10;;
81934;SDS011;71405;47.674;-2.050;2023-07-13T10:55:59;6.18;;;1.77;;
81934;SDS011;71405;47.674;-2.050;2023-07-13T10:58:37;6.35;;;2.03;;
81934;SDS011;71405;47.674;-2.050;2023-07-13T11:03:32;5.22;;;2.00;;
81934;SDS011;71405;47.674;-2.050;2023-07-13T11:08:56;5.93;;;2.08;;
81934;SDS011;71405;47.674;-2.050;2023-07-13T11:18:51;12.57;;;8.15;;
81934;SDS011;71405;47.674;-2.050;2023-07-13T11:21:22;9.80;;;5.32;;
81934;SDS011;71405;47.674;-2.050;2023-07-13T11:23:53;6.70;;;3.47;;
81934;SDS011;71405;47.674;-2.050;2023-07-13T11:27:11;9.05;;;3.60;;
81934;SDS011;71405;47.674;-2.050;2023-07-13T11:31:56;8.40;;;2.95;;
81934;SDS011;71405;47.674;-2.050;2023-07-13T11:34:26;8.50;;;2.60;;
81934;SDS011;71405;47.674;-2.050;2023-07-13T11:36:52;7.95;;;2.13;;
81934;SDS011;71405;47.674;-2.050;2023-07-13T11:41:54;8.73;;;2.60;;
81934;SDS011;71405;47.674;-2.050;2023-07-13T11:44:29;30.92;;;25.98;;
81934;SDS011;71405;47.674;-2.050;2023-07-13T11:46:56;20.58;;;16.42;;
81934;SDS011;71405;47.674;-2.050;2023-07-13T11:49:30;18.50;;;14.65;;
81934;SDS011;71405;47.674;-2.050;2023-07-13T11:51:57;16.90;;;11.25;;
81934;SDS011;71405;47.674;-2.050;2023-07-13T11:59:51;11.25;;;5.22;;
81934;SDS011;71405;47.674;-2.050;2023-07-13T12:02:29;14.38;;;8.95;;
81934;SDS011;71405;47.674;-2.050;2023-07-13T12:04:55;16.38;;;10.77;;
81934;SDS011;71405;47.674;-2.050;2023-07-13T12:07:22;16.80;;;12.13;;
81934;SDS011;71405;47.674;-2.050;2023-07-13T12:09:47;14.13;;;9.55;;
81934;SDS011;71405;47.674;-2.050;2023-07-13T12:12:20;11.88;;;6.35;;
81934;SDS011;71405;47.674;-2.050;2023-07-13T12:17:18;8.50;;;4.32;;
81934;SDS011;71405;47.674;-2.050;2023-07-13T12:19:45;9.52;;;4.40;;
81934;SDS011;71405;47.674;-2.050;2023-07-13T12:22:17;8.25;;;3.75;;
81934;SDS011;71405;47.674;-2.050;2023-07-13T12:24:44;8.50;;;3.45;;
81934;SDS011;71405;47.674;-2.050;2023-07-13T12:27:27;7.15;;;3.17;;
81934;SDS011;71405;47.674;-2.050;2023-07-13T12:30:03;8.40;;;3.33;;
81934;SDS011;71405;47.674;-2.050;2023-07-13T12:32:42;7.60;;;3.20;;
81934;SDS011;71405;47.674;-2.050;2023-07-13T12:35:13;7.00;;;2.90;;
81934;SDS011;71405;47.674;-2.050;2023-07-13T12:37:43;7.95;;;2.95;;
81934;SDS011;71405;47.674;-2.050;2023-07-13T12:40:18;7.63;;;2.42;;
81934;SDS011;71405;47.674;-2.050;2023-07-13T12:42:47;6.78;;;2.60;;
81934;SDS011;71405;47.674;-2.050;2023-07-13T12:45:22;7.05;;;2.38;;
81934;SDS011;71405;47.674;-2.050;2023-07-13T12:47:57;5.50;;;2.50;;
81934;SDS011;71405;47.674;-2.050;2023-07-13T12:50:29;7.75;;;2.58;;
81934;SDS011;71405;47.674;-2.050;2023-07-13T12:53:03;7.53;;;2.60;;
81934;SDS011;71405;47.674;-2.050;2023-07-13T12:55:40;9.73;;;3.47;;
81934;SDS011;71405;47.674;-2.050;2023-07-13T12:58:24;15.63;;;8.80;;
81934;SDS011;71405;47.674;-2.050;2023-07-13T13:00:50;15.70;;;9.57;;
81934;SDS011;71405;47.674;-2.050;2023-07-13T13:06:01;10.02;;;4.53;;
81934;SDS011;71405;47.674;-2.050;2023-07-13T13:08:30;9.60;;;4.70;;
81934;SDS011;71405;47.674;-2.050;2023-07-13T13:10:57;9.77;;;3.90;;
81934;SDS011;71405;47.674;-2.050;2023-07-13T13:13:23;8.32;;;3.10;;
81934;SDS011;71405;47.674;-2.050;2023-07-13T13:15:49;10.30;;;3.40;;
81934;SDS011;71405;47.674;-2.050;2023-07-13T13:18:19;7.68;;;2.70;;
81934;SDS011;71405;47.674;-2.050;2023-07-13T13:20:47;8.68;;;2.72;;
81934;SDS011;71405;47.674;-2.050;2023-07-13T13:23:15;7.65;;;2.40;;
81934;SDS011;71405;47.674;-2.050;2023-07-13T13:25:43;8.18;;;2.55;;
81934;SDS011;71405;47.674;-2.050;2023-07-13T13:28:14;5.47;;;2.30;;
81934;SDS011;71405;47.674;-2.050;2023-07-13T13:30:42;7.55;;;2.60;;
81934;SDS011;71405;47.674;-2.050;2023-07-13T13:33:11;7.18;;;2.65;;
81934;SDS011;71405;47.674;-2.050;2023-07-13T13:35:39;7.75;;;2.33;;
81934;SDS011;71405;47.674;-2.050;2023-07-13T13:38:10;6.82;;;2.67;;
81934;SDS011;71405;47.674;-2.050;2023-07-13T13:40:43;6.88;;;3.28;;
81934;SDS011;71405;47.674;-2.050;2023-07-13T13:43:17;13.23;;;8.20;;
81934;SDS011;71405;47.674;-2.050;2023-07-13T13:45:44;13.15;;;9.43;;
81934;SDS011;71405;47.674;-2.050;2023-07-13T13:48:23;14.13;;;7.90;;
81934;SDS011;71405;47.674;-2.050;2023-07-13T13:50:57;11.18;;;6.40;;
81934;SDS011;71405;47.674;-2.050;2023-07-13T13:53:23;9.55;;;4.10;;
81934;SDS011;71405;47.674;-2.050;2023-07-13T13:55:49;8.10;;;3.85;;
81934;SDS011;71405;47.674;-2.050;2023-07-13T13:58:15;7.85;;;3.40;;
81934;SDS011;71405;47.674;-2.050;2023-07-13T14:00:41;8.63;;;3.22;;
81934;SDS011;71405;47.674;-2.050;2023-07-13T14:03:28;8.27;;;3.53;;
81934;SDS011;71405;47.674;-2.050;2023-07-13T14:05:54;19.20;;;13.15;;
81934;SDS011;71405;47.674;-2.050;2023-07-13T14:08:22;13.73;;;8.88;;
81934;SDS011;71405;47.674;-2.050;2023-07-13T14:10:48;12.38;;;8.32;;
81934;SDS011;71405;47.674;-2.050;2023-07-13T14:13:21;10.77;;;6.07;;
81934;SDS011;71405;47.674;-2.050;2023-07-13T14:15:52;9.75;;;4.47;;
81934;SDS011;71405;47.674;-2.050;2023-07-13T14:18:18;8.15;;;3.92;;
81934;SDS011;71405;47.674;-2.050;2023-07-13T14:20:45;8.80;;;3.55;;
81934;SDS011;71405;47.674;-2.050;2023-07-13T14:23:15;16.10;;;8.43;;
81934;SDS011;71405;47.674;-2.050;2023-07-13T14:25:42;13.77;;;7.15;;
81934;SDS011;71405;47.674;-2.050;2023-07-13T14:28:41;10.10;;;5.10;;
81934;SDS011;71405;47.674;-2.050;2023-07-13T14:31:00;8.20;;;3.55;;
81934;SDS011;71405;47.674;-2.050;2023-07-13T14:33:26;8.13;;;2.90;;
81934;SDS011;71405;47.674;-2.050;2023-07-13T14:35:51;5.88;;;2.50;;
81934;SDS011;71405;47.674;-2.050;2023-07-13T14:38:18;6.72;;;2.63;;
81934;SDS011;71405;47.674;-2.050;2023-07-13T14:40:44;7.18;;;2.40;;
81934;SDS011;71405;47.674;-2.050;2023-07-13T14:43:12;6.20;;;2.35;;
81934;SDS011;71405;47.674;-2.050;2023-07-13T14:45:39;5.78;;;2.45;;
81934;SDS011;71405;47.674;-2.050;2023-07-13T14:48:16;11.77;;;2.83;;
81934;SDS011;71405;47.674;-2.050;2023-07-13T14:50:50;6.30;;;2.55;;
81934;SDS011;71405;47.674;-2.050;2023-07-13T14:53:21;6.63;;;2.35;;
81934;SDS011;71405;47.674;-2.050;2023-07-13T14:55:48;6.90;;;2.60;;
81934;SDS011;71405;47.674;-2.050;2023-07-13T14:58:14;7.38;;;2.20;;
81934;SDS011;71405;47.674;-2.050;2023-07-13T15:00:40;6.60;;;2.30;;
81934;SDS011;71405;47.674;-2.050;2023-07-13T15:03:08;6.63;;;2.80;;
81934;SDS011;71405;47.674;-2.050;2023-07-13T15:05:44;9.60;;;2.67;;
81934;SDS011;71405;47.674;-2.050;2023-07-13T15:08:10;6.93;;;2.22;;
81934;SDS011;71405;47.674;-2.050;2023-07-13T15:10:36;7.60;;;2.70;;
81934;SDS011;71405;47.674;-2.050;2023-07-13T15:13:21;8.25;;;2.50;;
81934;SDS011;71405;47.674;-2.050;2023-07-13T15:15:49;8.05;;;2.20;;
81934;SDS011;71405;47.674;-2.050;2023-07-13T15:20:47;7.28;;;2.47;;
81934;SDS011;71405;47.674;-2.050;2023-07-13T15:23:15;6.28;;;2.40;;
81934;SDS011;71405;47.674;-2.050;2023-07-13T15:25:42;7.35;;;2.40;;